createdAt,value
2017-10-10T00:00:26.496Z,99.89
2017-10-10T00:01:26.455Z,99.7
2017-10-10T00:02:26.447Z,99.8
2017-10-10T00:03:26.105Z,99.99
2017-10-10T00:04:26.426Z,99.99
2017-10-10T00:05:26.420Z,99.99
2017-10-10T00:06:26.410Z,99.99
2017-10-10T00:07:26.409Z,99.8
2017-10-10T00:08:26.393Z,99.99
2017-10-10T00:09:26.381Z,99.99
2017-10-10T00:10:26.379Z,99.99
2017-10-10T00:11:26.368Z,99.89
2017-10-10T00:12:26.359Z,99.99
2017-10-10T00:13:26.352Z,99.7
2017-10-10T00:14:26.338Z,99.99
2017-10-10T00:15:26.331Z,99.99
2017-10-10T00:16:26.322Z,99.99
2017-10-10T00:17:26.319Z,99.99
2017-10-10T00:18:26.313Z,99.99
2017-10-10T00:19:26.298Z,99.99
2017-10-10T00:20:26.288Z,99.7
2017-10-10T00:21:25.951Z,99.99
2017-10-10T00:22:26.275Z,99.99
2017-10-10T00:23:25.930Z,99.99
2017-10-10T00:24:26.258Z,99.99
2017-10-10T00:25:26.254Z,99.99
2017-10-10T00:26:25.908Z,99.99
2017-10-10T00:27:26.231Z,99.99
2017-10-10T00:28:26.231Z,99.99
2017-10-10T00:29:26.221Z,99.95
2017-10-10T00:30:26.202Z,99.99
2017-10-10T00:31:26.197Z,99.32
2017-10-10T00:32:25.859Z,99.85
2017-10-10T00:33:25.848Z,99.99
2017-10-10T00:34:26.175Z,99.56
2017-10-10T00:35:26.165Z,99.99
2017-10-10T00:36:25.825Z,99.99
2017-10-10T00:37:25.813Z,99.99
2017-10-10T00:38:25.806Z,99.99
2017-10-10T00:39:26.128Z,99.75
2017-10-10T00:40:26.121Z,99.7
2017-10-10T00:41:25.781Z,99.56
2017-10-10T00:42:26.103Z,99.51
2017-10-10T00:43:25.766Z,99.51
2017-10-10T00:44:25.754Z,99.89
2017-10-10T00:45:25.748Z,99.99
2017-10-10T00:46:26.072Z,99.99
2017-10-10T00:47:25.738Z,99.32
2017-10-10T00:48:26.060Z,99.89
2017-10-10T00:49:26.047Z,99.89
2017-10-10T00:50:26.040Z,99.7
2017-10-10T00:51:25.699Z,99.32
2017-10-10T00:52:25.689Z,99.75
2017-10-10T00:53:26.011Z,99.99
2017-10-10T00:54:25.672Z,99.89
2017-10-10T00:55:25.663Z,99.99
2017-10-10T00:56:25.989Z,99.99
2017-10-10T00:57:25.977Z,99.99
2017-10-10T00:58:25.977Z,99.99
2017-10-10T00:59:25.961Z,99.99
2017-10-10T01:00:25.955Z,99.99
2017-10-10T01:01:25.946Z,99.99
2017-10-10T01:02:25.605Z,99.66
2017-10-10T01:03:25.928Z,99.85
2017-10-10T01:04:25.925Z,99.37
2017-10-10T01:05:25.911Z,99.85
2017-10-10T01:06:25.906Z,99.85
2017-10-10T01:07:25.894Z,99.56
2017-10-10T01:08:25.556Z,99.95
2017-10-10T01:09:25.875Z,99.95
2017-10-10T01:10:25.868Z,99.99
2017-10-10T01:11:25.858Z,99.85
2017-10-10T01:12:25.521Z,99.75
2017-10-10T01:13:25.855Z,99.66
2017-10-10T01:14:25.504Z,99.85
2017-10-10T01:15:25.825Z,99.66
2017-10-10T01:16:25.825Z,99.85
2017-10-10T01:17:25.480Z,99.75
2017-10-10T01:18:25.807Z,99.75
2017-10-10T01:19:25.795Z,99.56
2017-10-10T01:20:25.787Z,99.56
2017-10-10T01:21:25.780Z,99.95
2017-10-10T01:22:25.772Z,99.95
2017-10-10T01:23:25.429Z,99.75
2017-10-10T01:24:25.753Z,99.75
2017-10-10T01:25:25.752Z,99.85
2017-10-10T01:26:25.741Z,99.85
2017-10-10T01:27:25.728Z,99.56
2017-10-10T01:28:25.721Z,99.46
2017-10-10T01:29:25.718Z,99.99
2017-10-10T01:30:25.704Z,99.99
2017-10-10T01:31:25.698Z,99.66
2017-10-10T01:32:25.689Z,99.75
2017-10-10T01:33:25.681Z,99.85
2017-10-10T01:34:25.674Z,99.99
2017-10-10T01:35:25.664Z,99.99
2017-10-10T01:36:25.658Z,99.56
2017-10-10T01:37:25.645Z,99.99
2017-10-10T01:38:25.636Z,99.95
2017-10-10T01:39:25.299Z,99.99
2017-10-10T01:40:25.632Z,99.99
2017-10-10T01:41:25.610Z,99.99
2017-10-10T01:42:25.606Z,99.95
2017-10-10T01:43:25.600Z,99.85
2017-10-10T01:44:25.587Z,99.99
2017-10-10T01:45:25.589Z,99.85
2017-10-10T01:46:25.569Z,99.75
2017-10-10T01:47:25.561Z,99.85
2017-10-10T01:48:25.556Z,99.66
2017-10-10T01:49:25.553Z,99.95
2017-10-10T01:50:25.537Z,99.99
2017-10-10T01:51:25.532Z,99.56
2017-10-10T01:52:25.522Z,99.99
2017-10-10T01:53:25.518Z,99.99
2017-10-10T01:54:25.506Z,99.99
2017-10-10T01:55:25.498Z,99.99
2017-10-10T01:56:25.488Z,99.99
2017-10-10T01:57:25.486Z,99.99
2017-10-10T01:58:25.475Z,99.99
2017-10-10T01:59:25.463Z,99.99
2017-10-10T02:00:25.458Z,99.99
2017-10-10T02:01:25.450Z,99.56
2017-10-10T02:02:25.443Z,99.37
2017-10-10T02:03:25.431Z,99.56
2017-10-10T02:04:25.427Z,99.56
2017-10-10T02:05:25.416Z,99.27
2017-10-10T02:06:25.077Z,99.75
2017-10-10T02:07:25.070Z,99.37
2017-10-10T02:08:25.061Z,99.56
2017-10-10T02:09:25.391Z,99.56
2017-10-10T02:10:25.045Z,99.56
2017-10-10T02:11:25.036Z,99.99
2017-10-10T02:12:25.029Z,99.66
2017-10-10T02:13:25.020Z,99.99
2017-10-10T02:14:25.343Z,99.75
2017-10-10T02:15:25.337Z,99.46
2017-10-10T02:16:25.329Z,99.56
2017-10-10T02:17:25.319Z,99.99
2017-10-10T02:18:24.979Z,99.27
2017-10-10T02:19:25.301Z,99.27
2017-10-10T02:20:24.962Z,99.37
2017-10-10T02:21:25.296Z,99.56
2017-10-10T02:22:25.283Z,99.37
2017-10-10T02:23:25.275Z,99.46
2017-10-10T02:24:24.932Z,99.27
2017-10-10T02:25:24.924Z,99.46
2017-10-10T02:26:24.918Z,99.46
2017-10-10T02:27:24.908Z,99.99
2017-10-10T02:28:25.236Z,99.99
2017-10-10T02:29:25.224Z,99.99
2017-10-10T02:30:25.222Z,99.99
2017-10-10T02:31:24.875Z,99.71
2017-10-10T02:32:25.205Z,99.8
2017-10-10T02:33:24.860Z,99.32
2017-10-10T02:34:25.179Z,99.37
2017-10-10T02:35:25.182Z,99.42
2017-10-10T02:36:24.836Z,99.42
2017-10-10T02:37:25.159Z,99.23
2017-10-10T02:38:25.155Z,99.61
2017-10-10T02:39:24.817Z,99.71
2017-10-10T02:40:25.133Z,99.52
2017-10-10T02:41:24.797Z,99.42
2017-10-10T02:42:24.789Z,99.42
2017-10-10T02:43:25.113Z,99.42
2017-10-10T02:44:24.772Z,99.32
2017-10-10T02:45:25.098Z,99.32
2017-10-10T02:46:25.088Z,99.23
2017-10-10T02:47:25.133Z,99.32
2017-10-10T02:48:24.739Z,99.61
2017-10-10T02:49:25.070Z,99.23
2017-10-10T02:50:24.728Z,99.37
2017-10-10T02:51:25.052Z,99.42
2017-10-10T02:52:24.708Z,99.42
2017-10-10T02:53:25.039Z,99.61
2017-10-10T02:54:24.693Z,99.61
2017-10-10T02:55:25.022Z,99.42
2017-10-10T02:56:25.012Z,99.42
2017-10-10T02:57:25.009Z,99.42
2017-10-10T02:58:24.662Z,99.32
2017-10-10T02:59:24.984Z,99.23
2017-10-10T03:00:24.647Z,99.23
2017-10-10T03:01:24.981Z,99.42
2017-10-10T03:02:24.960Z,99.61
2017-10-10T03:03:24.624Z,99.42
2017-10-10T03:04:24.950Z,99.42
2017-10-10T03:05:24.607Z,99.52
2017-10-10T03:06:24.930Z,99.61
2017-10-10T03:07:24.591Z,99.61
2017-10-10T03:08:24.583Z,99.61
2017-10-10T03:09:24.909Z,99.42
2017-10-10T03:10:24.570Z,99.52
2017-10-10T03:11:24.560Z,99.23
2017-10-10T03:12:24.884Z,99.32
2017-10-10T03:13:24.877Z,99.04
2017-10-10T03:14:24.865Z,99.23
2017-10-10T03:15:24.867Z,99.04
2017-10-10T03:16:24.526Z,98.94
2017-10-10T03:17:24.515Z,98.75
2017-10-10T03:18:24.839Z,99.04
2017-10-10T03:19:24.498Z,98.94
2017-10-10T03:20:24.821Z,99.23
2017-10-10T03:21:24.813Z,99.23
2017-10-10T03:22:24.806Z,99.61
2017-10-10T03:23:24.800Z,98.75
2017-10-10T03:24:24.795Z,99.04
2017-10-10T03:25:24.782Z,99.04
2017-10-10T03:26:24.778Z,99.04
2017-10-10T03:27:24.765Z,98.94
2017-10-10T03:28:24.774Z,98.85
2017-10-10T03:29:24.754Z,99.23
2017-10-10T03:30:24.747Z,98.75
2017-10-10T03:31:24.735Z,98.75
2017-10-10T03:32:24.731Z,98.75
2017-10-10T03:33:24.719Z,98.85
2017-10-10T03:34:24.711Z,99.18
2017-10-10T03:35:24.372Z,99.08
2017-10-10T03:36:24.702Z,99.08
2017-10-10T03:37:24.687Z,98.8
2017-10-10T03:38:24.684Z,99.46
2017-10-10T03:39:24.672Z,98.61
2017-10-10T03:40:24.332Z,98.7
2017-10-10T03:41:24.656Z,99.46
2017-10-10T03:42:24.647Z,99.46
2017-10-10T03:43:24.645Z,99.75
2017-10-10T03:44:24.639Z,99.66
2017-10-10T03:45:24.626Z,99.27
2017-10-10T03:46:24.619Z,99.66
2017-10-10T03:47:24.609Z,99.56
2017-10-10T03:48:24.608Z,99.66
2017-10-10T03:49:24.591Z,99.46
2017-10-10T03:50:24.591Z,99.46
2017-10-10T03:51:24.584Z,99.37
2017-10-10T03:52:24.577Z,99.46
2017-10-10T03:53:24.562Z,99.37
2017-10-10T03:54:24.555Z,99.75
2017-10-10T03:55:24.546Z,99.95
2017-10-10T03:56:24.536Z,99.66
2017-10-10T03:57:24.548Z,99.37
2017-10-10T03:58:24.519Z,99.46
2017-10-10T03:59:24.513Z,99.85
2017-10-10T04:00:24.502Z,99.75
2017-10-10T04:01:24.496Z,99.95
2017-10-10T04:02:24.487Z,99.56
2017-10-10T04:03:24.478Z,99.56
2017-10-10T04:04:24.139Z,99.75
2017-10-10T04:05:24.471Z,99.85
2017-10-10T04:06:24.126Z,99.85
2017-10-10T04:07:24.449Z,99.75
2017-10-10T04:08:24.439Z,99.66
2017-10-10T04:09:24.430Z,99.75
2017-10-10T04:10:24.419Z,99.85
2017-10-10T04:11:24.417Z,99.85
2017-10-10T04:12:24.408Z,99.75
2017-10-10T04:13:24.398Z,99.75
2017-10-10T04:14:24.394Z,99.85
2017-10-10T04:15:24.392Z,99.75
2017-10-10T04:16:24.378Z,99.99
2017-10-10T04:17:24.367Z,99.99
2017-10-10T04:18:24.025Z,99.75
2017-10-10T04:19:24.353Z,99.99
2017-10-10T04:20:24.346Z,99.75
2017-10-10T04:21:24.335Z,99.75
2017-10-10T04:22:24.335Z,99.75
2017-10-10T04:23:23.986Z,99.75
2017-10-10T04:24:23.977Z,99.56
2017-10-10T04:25:24.298Z,99.66
2017-10-10T04:26:24.302Z,99.37
2017-10-10T04:27:24.303Z,99.75
2017-10-10T04:28:24.285Z,99.75
2017-10-10T04:29:24.279Z,99.75
2017-10-10T04:30:24.260Z,99.56
2017-10-10T04:31:24.261Z,99.32
2017-10-10T04:32:24.280Z,99.52
2017-10-10T04:33:24.238Z,99.61
2017-10-10T04:34:24.232Z,99.61
2017-10-10T04:35:24.227Z,99.61
2017-10-10T04:36:24.213Z,99.04
2017-10-10T04:37:24.210Z,98.66
2017-10-10T04:38:24.204Z,98.66
2017-10-10T04:39:24.196Z,98.94
2017-10-10T04:40:24.184Z,98.66
2017-10-10T04:41:24.174Z,98.66
2017-10-10T04:42:24.190Z,98.75
2017-10-10T04:43:24.160Z,99.71
2017-10-10T04:44:24.151Z,99.61
2017-10-10T04:45:24.153Z,99.61
2017-10-10T04:46:24.135Z,99.04
2017-10-10T04:47:24.127Z,99.23
2017-10-10T04:48:24.122Z,98.85
2017-10-10T04:49:24.114Z,99.23
2017-10-10T04:50:24.104Z,98.85
2017-10-10T04:51:24.100Z,98.75
2017-10-10T04:52:23.759Z,98.94
2017-10-10T04:53:24.081Z,98.94
2017-10-10T04:54:24.070Z,99.42
2017-10-10T04:55:24.065Z,99.23
2017-10-10T04:56:23.722Z,98.85
2017-10-10T04:57:24.049Z,99.04
2017-10-10T04:58:24.041Z,99.04
2017-10-10T04:59:24.030Z,99.04
2017-10-10T05:00:24.022Z,99.23
2017-10-10T05:01:24.017Z,99.13
2017-10-10T05:02:24.013Z,98.85
2017-10-10T05:03:24.003Z,98.94
2017-10-10T05:04:23.662Z,98.94
2017-10-10T05:05:24.000Z,98.94
2017-10-10T05:06:23.989Z,98.94
2017-10-10T05:07:23.977Z,99.23
2017-10-10T05:08:23.961Z,98.85
2017-10-10T05:09:23.952Z,99.04
2017-10-10T05:10:23.946Z,98.85
2017-10-10T05:11:23.940Z,98.75
2017-10-10T05:12:23.933Z,98.85
2017-10-10T05:13:23.925Z,98.94
2017-10-10T05:14:23.917Z,99.13
2017-10-10T05:15:23.908Z,99.13
2017-10-10T05:16:23.906Z,99.23
2017-10-10T05:17:23.895Z,99.13
2017-10-10T05:18:23.891Z,98.85
2017-10-10T05:19:23.892Z,98.99
2017-10-10T05:20:23.540Z,98.75
2017-10-10T05:21:23.864Z,98.85
2017-10-10T05:22:23.853Z,98.85
2017-10-10T05:23:23.845Z,98.99
2017-10-10T05:24:23.840Z,98.9
2017-10-10T05:25:23.830Z,98.99
2017-10-10T05:26:23.828Z,99.08
2017-10-10T05:27:23.816Z,98.8
2017-10-10T05:28:23.808Z,98.99
2017-10-10T05:29:23.800Z,99.28
2017-10-10T05:30:23.794Z,99.08
2017-10-10T05:31:23.784Z,98.99
2017-10-10T05:32:23.784Z,99.08
2017-10-10T05:33:23.772Z,98.71
2017-10-10T05:34:23.432Z,98.9
2017-10-10T05:35:23.759Z,98.8
2017-10-10T05:36:23.749Z,99.08
2017-10-10T05:37:23.739Z,98.99
2017-10-10T05:38:23.734Z,98.99
2017-10-10T05:39:23.728Z,98.9
2017-10-10T05:40:23.718Z,98.8
2017-10-10T05:41:23.714Z,98.52
2017-10-10T05:42:23.704Z,99.08
2017-10-10T05:43:23.362Z,98.9
2017-10-10T05:44:23.689Z,98.71
2017-10-10T05:45:23.681Z,98.8
2017-10-10T05:46:23.676Z,98.71
2017-10-10T05:47:23.332Z,98.9
2017-10-10T05:48:23.658Z,98.99
2017-10-10T05:49:23.647Z,99.08
2017-10-10T05:50:23.307Z,98.99
2017-10-10T05:51:23.631Z,99.23
2017-10-10T05:52:23.624Z,99.18
2017-10-10T05:53:23.617Z,99.18
2017-10-10T05:54:23.280Z,99.08
2017-10-10T05:55:23.603Z,98.99
2017-10-10T05:56:23.261Z,99.28
2017-10-10T05:57:23.591Z,99.08
2017-10-10T05:58:23.577Z,99.28
2017-10-10T05:59:23.579Z,98.9
2017-10-10T06:00:23.565Z,99.08
2017-10-10T06:01:23.556Z,98.9
2017-10-10T06:02:23.552Z,98.9
2017-10-10T06:03:23.543Z,98.99
2017-10-10T06:04:23.535Z,99.47
2017-10-10T06:05:23.531Z,99.47
2017-10-10T06:06:23.528Z,98.99
2017-10-10T06:07:23.517Z,99.08
2017-10-10T06:08:23.513Z,99.08
2017-10-10T06:09:23.498Z,99.08
2017-10-10T06:10:23.485Z,99.28
2017-10-10T06:11:23.485Z,99.28
2017-10-10T06:12:23.475Z,99.28
2017-10-10T06:13:23.480Z,98.99
2017-10-10T06:14:23.462Z,98.71
2017-10-10T06:15:23.454Z,99.08
2017-10-10T06:16:23.451Z,98.8
2017-10-10T06:17:23.438Z,98.9
2017-10-10T06:18:23.428Z,98.8
2017-10-10T06:19:23.423Z,98.8
2017-10-10T06:20:23.417Z,99.28
2017-10-10T06:21:23.411Z,98.9
2017-10-10T06:22:23.069Z,99.47
2017-10-10T06:23:23.393Z,99.08
2017-10-10T06:24:23.383Z,99.08
2017-10-10T06:25:23.377Z,98.99
2017-10-10T06:26:23.372Z,99.18
2017-10-10T06:27:23.364Z,98.99
2017-10-10T06:28:23.354Z,99.28
2017-10-10T06:29:23.351Z,98.9
2017-10-10T06:30:23.345Z,99.08
2017-10-10T06:31:23.640Z,99.52
2017-10-10T06:32:23.329Z,98.99
2017-10-10T06:33:23.320Z,99.18
2017-10-10T06:34:23.314Z,98.9
2017-10-10T06:35:23.301Z,98.99
2017-10-10T06:36:23.298Z,98.99
2017-10-10T06:37:23.287Z,98.71
2017-10-10T06:38:23.282Z,99.37
2017-10-10T06:39:22.942Z,99.28
2017-10-10T06:40:22.934Z,98.8
2017-10-10T06:41:23.261Z,98.99
2017-10-10T06:42:22.922Z,98.85
2017-10-10T06:43:23.244Z,98.99
2017-10-10T06:44:23.238Z,99.08
2017-10-10T06:45:22.900Z,98.8
2017-10-10T06:46:23.222Z,98.8
2017-10-10T06:47:23.217Z,98.99
2017-10-10T06:48:23.215Z,98.9
2017-10-10T06:49:23.203Z,98.8
2017-10-10T06:50:22.877Z,98.8
2017-10-10T06:51:23.186Z,98.99
2017-10-10T06:52:23.182Z,99.08
2017-10-10T06:53:23.175Z,98.85
2017-10-10T06:54:22.831Z,98.75
2017-10-10T06:55:23.160Z,98.85
2017-10-10T06:56:23.172Z,98.85
2017-10-10T06:57:23.142Z,98.94
2017-10-10T06:58:23.137Z,98.57
2017-10-10T06:59:23.130Z,98.57
2017-10-10T07:00:23.120Z,98.57
2017-10-10T07:01:23.115Z,98.57
2017-10-10T07:02:23.112Z,98.57
2017-10-10T07:03:23.100Z,98.18
2017-10-10T07:04:23.093Z,98.66
2017-10-10T07:05:22.759Z,98.37
2017-10-10T07:06:23.077Z,98.28
2017-10-10T07:07:23.079Z,98.47
2017-10-10T07:08:22.732Z,98.47
2017-10-10T07:09:23.057Z,98.28
2017-10-10T07:10:23.051Z,98.28
2017-10-10T07:11:23.041Z,98.75
2017-10-10T07:12:23.039Z,98.66
2017-10-10T07:13:22.695Z,98.37
2017-10-10T07:14:23.021Z,98.47
2017-10-10T07:15:23.013Z,98.47
2017-10-10T07:16:23.005Z,98.37
2017-10-10T07:17:23.005Z,98.57
2017-10-10T07:18:22.996Z,98.47
2017-10-10T07:19:22.988Z,98.18
2017-10-10T07:20:22.978Z,98.28
2017-10-10T07:21:22.970Z,98.47
2017-10-10T07:22:22.633Z,98.37
2017-10-10T07:23:22.956Z,98.47
2017-10-10T07:24:22.617Z,98.18
2017-10-10T07:25:22.947Z,98.18
2017-10-10T07:26:22.937Z,97.89
2017-10-10T07:27:22.930Z,98.08
2017-10-10T07:28:22.923Z,97.99
2017-10-10T07:29:22.913Z,97.99
2017-10-10T07:30:22.908Z,98.28
2017-10-10T07:31:22.898Z,98.28
2017-10-10T07:32:22.894Z,97.71
2017-10-10T07:33:22.885Z,97.52
2017-10-10T07:34:22.883Z,97.61
2017-10-10T07:35:22.876Z,97.52
2017-10-10T07:36:22.867Z,97.61
2017-10-10T07:37:22.527Z,97.32
2017-10-10T07:38:22.851Z,97.61
2017-10-10T07:39:22.844Z,97.66
2017-10-10T07:40:22.837Z,97.56
2017-10-10T07:41:22.498Z,97.85
2017-10-10T07:42:22.489Z,97.66
2017-10-10T07:43:22.817Z,97.66
2017-10-10T07:44:22.819Z,97.37
2017-10-10T07:45:22.811Z,97.56
2017-10-10T07:46:22.798Z,97.85
2017-10-10T07:47:22.458Z,98.04
2017-10-10T07:48:22.988Z,97.66
2017-10-10T07:49:22.782Z,97.56
2017-10-10T07:50:22.774Z,97.47
2017-10-10T07:51:22.763Z,97.85
2017-10-10T07:52:22.761Z,97.56
2017-10-10T07:53:22.754Z,98.04
2017-10-10T07:54:22.745Z,97.85
2017-10-10T07:55:22.737Z,97.66
2017-10-10T07:56:22.731Z,97.66
2017-10-10T07:57:22.390Z,97.37
2017-10-10T07:58:22.722Z,97.47
2017-10-10T07:59:22.712Z,97.66
2017-10-10T08:00:22.705Z,97.47
2017-10-10T08:01:22.694Z,97.85
2017-10-10T08:02:22.693Z,97.47
2017-10-10T08:03:22.684Z,97.56
2017-10-10T08:04:22.681Z,97.47
2017-10-10T08:05:22.670Z,97.85
2017-10-10T08:06:22.664Z,97.66
2017-10-10T08:07:22.324Z,97.66
2017-10-10T08:08:22.651Z,97.08
2017-10-10T08:09:22.649Z,97.18
2017-10-10T08:10:22.634Z,96.32
2017-10-10T08:11:22.637Z,97.08
2017-10-10T08:12:22.623Z,97.08
2017-10-10T08:13:22.618Z,97.28
2017-10-10T08:14:22.609Z,97.47
2017-10-10T08:15:22.607Z,97.18
2017-10-10T08:16:22.600Z,97.75
2017-10-10T08:17:22.592Z,97.66
2017-10-10T08:18:22.586Z,97.37
2017-10-10T08:19:22.577Z,97.66
2017-10-10T08:20:22.580Z,97.47
2017-10-10T08:21:22.565Z,97.47
2017-10-10T08:22:22.565Z,97.94
2017-10-10T08:23:22.553Z,97.99
2017-10-10T08:24:22.548Z,97.56
2017-10-10T08:25:22.538Z,97.13
2017-10-10T08:26:22.535Z,96.84
2017-10-10T08:27:22.533Z,96.66
2017-10-10T08:28:22.521Z,96.84
2017-10-10T08:29:22.180Z,97.8
2017-10-10T08:30:22.505Z,97.99
2017-10-10T08:31:22.498Z,97.71
2017-10-10T08:32:22.503Z,96.94
2017-10-10T08:33:22.501Z,97.04
2017-10-10T08:34:22.151Z,97.71
2017-10-10T08:35:22.473Z,97.66
2017-10-10T08:36:22.467Z,97.61
2017-10-10T08:37:22.463Z,97.71
2017-10-10T08:38:22.454Z,96.94
2017-10-10T08:39:22.453Z,97.42
2017-10-10T08:40:22.443Z,97.13
2017-10-10T08:41:22.443Z,97.61
2017-10-10T08:42:22.096Z,98.09
2017-10-10T08:43:22.090Z,97.52
2017-10-10T08:44:22.416Z,97.23
2017-10-10T08:45:22.413Z,97.23
2017-10-10T08:46:22.075Z,97.23
2017-10-10T08:47:22.066Z,97.04
2017-10-10T08:48:22.393Z,97.04
2017-10-10T08:49:22.389Z,97.23
2017-10-10T08:50:22.048Z,97.61
2017-10-10T08:51:22.383Z,98.18
2017-10-10T08:52:22.375Z,97.66
2017-10-10T08:53:22.361Z,97.08
2017-10-10T08:54:22.026Z,96.8
2017-10-10T08:55:22.352Z,96.13
2017-10-10T08:56:22.014Z,96.13
2017-10-10T08:57:22.006Z,96.32
2017-10-10T08:58:22.329Z,96.08
2017-10-10T08:59:22.010Z,96.22
2017-10-10T09:00:22.327Z,96.27
2017-10-10T09:01:22.317Z,96.27
2017-10-10T09:02:22.311Z,95.41
2017-10-10T09:03:21.971Z,95.22
2017-10-10T09:04:22.294Z,95.12
2017-10-10T09:05:21.960Z,94.65
2017-10-10T09:06:22.291Z,95.03
2017-10-10T09:07:21.949Z,95.12
2017-10-10T09:08:22.273Z,95.03
2017-10-10T09:09:22.278Z,95.12
2017-10-10T09:10:22.262Z,95.36
2017-10-10T09:11:22.646Z,94.98
2017-10-10T09:12:21.922Z,95.07
2017-10-10T09:13:21.915Z,94.6
2017-10-10T09:14:21.913Z,95.27
2017-10-10T09:15:22.237Z,94.21
2017-10-10T09:16:22.232Z,94.5
2017-10-10T09:17:21.894Z,94.4
2017-10-10T09:18:21.889Z,94.79
2017-10-10T09:19:21.884Z,94.35
2017-10-10T09:20:21.901Z,94.74
2017-10-10T09:21:22.206Z,94.74
2017-10-10T09:22:21.869Z,94.55
2017-10-10T09:23:22.196Z,94.74
2017-10-10T09:24:22.195Z,94.55
2017-10-10T09:25:22.186Z,94.4
2017-10-10T09:26:21.849Z,94.02
2017-10-10T09:27:21.846Z,93.83
2017-10-10T09:28:21.842Z,93.54
2017-10-10T09:29:21.835Z,93.83
2017-10-10T09:30:22.166Z,94.21
2017-10-10T09:31:21.828Z,93.54
2017-10-10T09:32:21.821Z,93.83
2017-10-10T09:33:21.816Z,93.54
2017-10-10T09:34:21.814Z,94.02
2017-10-10T09:35:21.807Z,93.83
2017-10-10T09:36:21.802Z,93.73
2017-10-10T09:37:21.801Z,94.02
2017-10-10T09:38:21.792Z,93.97
2017-10-10T09:39:22.128Z,93.59
2017-10-10T09:40:21.799Z,93.54
2017-10-10T09:41:21.782Z,93.44
2017-10-10T09:42:21.778Z,93.15
2017-10-10T09:43:21.774Z,92.86
2017-10-10T09:44:21.769Z,92.05
2017-10-10T09:45:21.766Z,92.24
2017-10-10T09:46:21.761Z,91.86
2017-10-10T09:47:21.758Z,91.96
2017-10-10T09:48:21.755Z,92.05
2017-10-10T09:49:21.748Z,92.05
2017-10-10T09:50:21.746Z,91.86
2017-10-10T09:51:22.080Z,91.76
2017-10-10T09:52:21.739Z,91.86
2017-10-10T09:53:22.068Z,92.05
2017-10-10T09:54:22.063Z,92.05
2017-10-10T09:55:21.727Z,92.63
2017-10-10T09:56:22.068Z,92.53
2017-10-10T09:57:22.058Z,92.53
2017-10-10T09:58:22.048Z,92.43
2017-10-10T09:59:22.051Z,92.33
2017-10-10T10:00:22.046Z,92.33
2017-10-10T10:01:21.709Z,92.33
2017-10-10T10:02:22.043Z,92.43
2017-10-10T10:03:21.699Z,92.53
2017-10-10T10:04:22.026Z,92.05
2017-10-10T10:05:22.025Z,92.24
2017-10-10T10:06:22.019Z,92.24
2017-10-10T10:07:22.016Z,93.1
2017-10-10T10:08:22.015Z,92.82
2017-10-10T10:09:22.011Z,92.68
2017-10-10T10:10:22.012Z,92.77
2017-10-10T10:11:22.000Z,92.77
2017-10-10T10:12:22.000Z,92.77
2017-10-10T10:13:21.992Z,93.44
2017-10-10T10:14:21.984Z,93.54
2017-10-10T10:15:21.987Z,93.82
2017-10-10T10:16:21.646Z,93.73
2017-10-10T10:17:21.987Z,93.82
2017-10-10T10:18:21.640Z,93.92
2017-10-10T10:19:21.974Z,94.02
2017-10-10T10:20:21.961Z,93.97
2017-10-10T10:21:21.958Z,93.97
2017-10-10T10:22:21.956Z,94.07
2017-10-10T10:23:21.953Z,94.35
2017-10-10T10:24:21.944Z,94.35
2017-10-10T10:25:21.610Z,93.78
2017-10-10T10:26:21.937Z,93.97
2017-10-10T10:27:21.934Z,94.45
2017-10-10T10:28:21.936Z,94.45
2017-10-10T10:29:21.924Z,95.07
2017-10-10T10:30:21.924Z,95.17
2017-10-10T10:31:21.914Z,95.65
2017-10-10T10:32:21.914Z,95.36
2017-10-10T10:33:21.909Z,95.84
2017-10-10T10:34:21.899Z,95.84
2017-10-10T10:35:21.903Z,96.13
2017-10-10T10:36:21.898Z,95.94
2017-10-10T10:37:21.893Z,96.51
2017-10-10T10:38:21.552Z,95.84
2017-10-10T10:39:21.878Z,96.42
2017-10-10T10:40:21.873Z,95.84
2017-10-10T10:41:21.870Z,95.75
2017-10-10T10:42:21.530Z,96.42
2017-10-10T10:43:21.870Z,96.32
2017-10-10T10:44:21.855Z,96.42
2017-10-10T10:45:21.520Z,96.22
2017-10-10T10:46:21.847Z,95.94
2017-10-10T10:47:21.844Z,96.13
2017-10-10T10:48:21.832Z,96.03
2017-10-10T10:49:21.832Z,95.94
2017-10-10T10:50:21.829Z,95.65
2017-10-10T10:51:21.817Z,95.65
2017-10-10T10:52:21.823Z,95.56
2017-10-10T10:53:21.811Z,95.94
2017-10-10T10:54:21.829Z,96.13
2017-10-10T10:55:21.801Z,96.03
2017-10-10T10:56:21.800Z,95.98
2017-10-10T10:57:21.796Z,95.12
2017-10-10T10:58:21.789Z,95.7
2017-10-10T10:59:21.798Z,95.21
2017-10-10T11:00:21.788Z,95.21
2017-10-10T11:01:21.774Z,95.21
2017-10-10T11:02:21.766Z,95.21
2017-10-10T11:03:21.768Z,95.41
2017-10-10T11:04:21.760Z,95.03
2017-10-10T11:05:21.758Z,95.17
2017-10-10T11:06:21.752Z,94.69
2017-10-10T11:07:21.745Z,94.88
2017-10-10T11:08:21.746Z,94.69
2017-10-10T11:09:21.738Z,94.49
2017-10-10T11:10:21.732Z,94.88
2017-10-10T11:11:21.733Z,94.88
2017-10-10T11:12:21.395Z,94.88
2017-10-10T11:13:21.721Z,94.49
2017-10-10T11:14:21.718Z,94.12
2017-10-10T11:15:21.736Z,94.12
2017-10-10T11:16:21.710Z,94.26
2017-10-10T11:17:21.373Z,93.97
2017-10-10T11:18:21.703Z,94.26
2017-10-10T11:19:21.695Z,93.87
2017-10-10T11:20:21.687Z,92.91
2017-10-10T11:21:21.687Z,93.59
2017-10-10T11:22:21.689Z,93.97
2017-10-10T11:23:21.681Z,94.16
2017-10-10T11:24:21.682Z,93.82
2017-10-10T11:25:21.671Z,93.73
2017-10-10T11:26:21.669Z,94.12
2017-10-10T11:27:21.669Z,93.92
2017-10-10T11:28:21.663Z,93.92
2017-10-10T11:29:21.321Z,94.02
2017-10-10T11:30:21.649Z,93.92
2017-10-10T11:31:21.656Z,93.63
2017-10-10T11:32:21.645Z,93.35
2017-10-10T11:33:21.636Z,93.92
2017-10-10T11:34:21.639Z,93.73
2017-10-10T11:35:21.633Z,93.54
2017-10-10T11:36:21.296Z,93.92
2017-10-10T11:37:21.620Z,93.92
2017-10-10T11:38:21.293Z,94.21
2017-10-10T11:39:21.280Z,94.07
2017-10-10T11:40:21.643Z,94.45
2017-10-10T11:41:21.604Z,94.54
2017-10-10T11:42:21.606Z,94.54
2017-10-10T11:43:21.594Z,94.74
2017-10-10T11:44:21.258Z,94.74
2017-10-10T11:45:21.584Z,95.03
2017-10-10T11:46:21.248Z,95.03
2017-10-10T11:47:21.579Z,95.41
2017-10-10T11:48:21.572Z,95.21
2017-10-10T11:49:21.575Z,94.84
2017-10-10T11:50:21.570Z,94.74
2017-10-10T11:51:21.229Z,95.07
2017-10-10T11:52:21.555Z,94.69
2017-10-10T11:53:21.551Z,94.79
2017-10-10T11:54:21.546Z,94.49
2017-10-10T11:55:21.542Z,94.59
2017-10-10T11:56:21.546Z,94.31
2017-10-10T11:57:21.537Z,94.49
2017-10-10T11:58:21.532Z,93.44
2017-10-10T11:59:21.194Z,94.12
2017-10-10T12:00:21.521Z,94.21
2017-10-10T12:01:21.515Z,93.54
2017-10-10T12:02:21.512Z,93.82
2017-10-10T12:03:21.176Z,93.54
2017-10-10T12:04:21.503Z,94.02
2017-10-10T12:05:21.502Z,93.92
2017-10-10T12:06:21.505Z,93.92
2017-10-10T12:07:21.496Z,93.92
2017-10-10T12:08:21.489Z,94.12
2017-10-10T12:09:21.480Z,94.21
2017-10-10T12:10:21.479Z,94.12
2017-10-10T12:11:21.478Z,94.21
2017-10-10T12:12:21.468Z,94.4
2017-10-10T12:13:21.133Z,94.35
2017-10-10T12:14:21.459Z,94.45
2017-10-10T12:15:21.456Z,94.45
2017-10-10T12:16:21.120Z,94.74
2017-10-10T12:17:21.449Z,94.84
2017-10-10T12:18:21.448Z,94.26
2017-10-10T12:19:21.444Z,94.64
2017-10-10T12:20:21.436Z,94.74
2017-10-10T12:21:21.429Z,94.74
2017-10-10T12:22:21.429Z,95.03
2017-10-10T12:23:21.680Z,95.03
2017-10-10T12:24:21.419Z,95.41
2017-10-10T12:25:21.411Z,95.56
2017-10-10T12:26:21.409Z,95.26
2017-10-10T12:27:21.404Z,95.17
2017-10-10T12:28:21.398Z,95.26
2017-10-10T12:29:21.595Z,95.56
2017-10-10T12:30:21.388Z,95.46
2017-10-10T12:31:21.386Z,95.51
2017-10-10T12:32:21.381Z,95.12
2017-10-10T12:33:21.377Z,95.51
2017-10-10T12:34:21.368Z,95.26
2017-10-10T12:35:21.365Z,95.21
2017-10-10T12:36:21.362Z,95.6
2017-10-10T12:37:21.359Z,95.56
2017-10-10T12:38:21.354Z,95.21
2017-10-10T12:39:21.347Z,95.7
2017-10-10T12:40:21.346Z,95.41
2017-10-10T12:41:21.339Z,95.41
2017-10-10T12:42:21.337Z,95.31
2017-10-10T12:43:21.341Z,95.21
2017-10-10T12:44:21.333Z,95.6
2017-10-10T12:45:21.323Z,95.03
2017-10-10T12:46:21.321Z,95.12
2017-10-10T12:47:21.313Z,94.84
2017-10-10T12:48:21.309Z,94.54
2017-10-10T12:49:21.301Z,94.59
2017-10-10T12:50:21.297Z,94.4
2017-10-10T12:51:21.296Z,94.4
2017-10-10T12:52:20.957Z,94.4
2017-10-10T12:53:21.289Z,94.21
2017-10-10T12:54:21.537Z,94.49